Time;durP1;ratioP1;P1;durP2;ratioP2;P2;SDS_P1;SDS_P2;PMS_P1;PMS_P2;Temp;Humidity;BMP_temperature;BMP_pressure;BME280_temperature;BME280_humidity;BME280_pressure;Samples;Min_cycle;Max_cycle;Signal;HPM_P1;HPM_P2
2023/06/23 13:11:43;;;;;;;34.38;30.65;;;;;;;31.44;51.96;100060.03;1867788;76;27445;-58
2023/06/23 13:14:10;;;;;;;20.60;15.65;;;;;;;31.59;51.89;100054.70;1824528;77;25608;-69
2023/06/23 13:16:37;;;;;;;32.08;29.12;;;;;;;31.80;51.51;100042.49;1825120;78;27485;-67
2023/06/23 13:19:04;;;;;;;23.20;19.30;;;;;;;31.85;50.94;100046.08;1826474;78;25162;-75
2023/06/23 13:21:30;;;;;;;22.22;19.92;;;;;;;31.92;50.28;100048.57;1825815;78;25373;-59
2023/06/23 13:23:56;;;;;;;20.75;18.75;;;;;;;31.86;49.78;100046.25;1803787;78;25514;-52
2023/06/23 13:26:22;;;;;;;19.00;17.25;;;;;;;31.68;49.01;100039.20;1824433;78;25584;-53
2023/06/23 13:28:49;;;;;;;19.52;17.48;;;;;;;31.20;48.62;100036.02;1824477;78;29727;-52
2023/06/23 13:31:15;;;;;;;21.85;18.42;;;;;;;30.98;49.01;100033.89;1824346;78;25912;-51
2023/06/23 13:33:41;;;;;;;20.20;18.20;;;;;;;30.77;49.23;100035.42;1824477;78;25612;-51
2023/06/23 13:36:07;;;;;;;17.25;15.38;;;;;;;30.58;49.80;100031.13;1824359;78;25566;-54
2023/06/23 13:38:33;;;;;;;18.40;14.80;;;;;;;30.50;50.25;100028.42;1824499;77;25425;-55
2023/06/23 13:41:00;;;;;;;17.75;15.70;;;;;;;30.45;50.61;100029.77;1803905;78;27458;-55
2023/06/23 13:43:26;;;;;;;17.62;15.75;;;;;;;30.41;50.91;100031.92;1824376;78;25425;-57
2023/06/23 13:45:52;;;;;;;16.65;15.03;;;;;;;30.35;50.07;100032.29;1824434;77;25533;-57
2023/06/23 13:48:18;;;;;;;19.35;15.60;;;;;;;30.21;49.94;100025.82;1824335;78;25550;-55
2023/06/23 13:50:46;;;;;;;17.62;15.83;;;;;;;30.02;49.98;100027.63;1824432;78;25360;-61
2023/06/23 13:53:13;;;;;;;17.95;16.15;;;;;;;29.87;50.19;100019.76;1824408;78;27517;-59
2023/06/23 13:55:39;;;;;;;21.50;17.30;;;;;;;29.71;50.49;100022.64;1824310;78;25586;-57
2023/06/23 13:58:07;;;;;;;18.35;16.50;;;;;;;29.53;50.75;100024.00;1824425;78;25563;-59
2023/06/23 14:00:34;;;;;;;18.85;16.65;;;;;;;29.31;50.84;100022.48;1824492;78;25786;-56
2023/06/23 14:03:01;;;;;;;22.30;17.52;;;;;;;29.12;51.23;100024.84;1824338;78;25468;-56
2023/06/23 14:05:28;;;;;;;20.55;16.52;;;;;;;28.99;51.69;100029.76;1823053;78;28241;-56
2023/06/23 14:07:56;;;;;;;20.30;16.48;;;;;;;28.91;51.78;100022.83;1824047;78;25617;-56
2023/06/23 14:10:23;;;;;;;20.57;17.27;;;;;;;28.82;51.75;100022.70;1826515;77;25636;-57
2023/06/23 14:12:50;;;;;;;19.32;15.93;;;;;;;28.57;51.94;100027.58;1830447;78;25545;-53
2023/06/23 14:15:17;;;;;;;20.57;16.52;;;;;;;28.39;52.44;100039.16;1830540;78;25581;-57
2023/06/23 14:17:43;;;;;;;16.15;14.45;;;;;;;28.23;52.44;100037.98;1776589;78;27534;-56
2023/06/23 14:20:12;;;;;;;17.98;16.07;;;;;;;28.17;52.55;100039.72;1830408;77;25559;-56
2023/06/23 14:22:38;;;;;;;18.03;16.10;;;;;;;28.08;53.38;100039.56;1830366;77;25569;-54
2023/06/23 14:25:08;;;;;;;20.75;18.23;;;;;;;27.91;53.21;100052.03;1829813;77;25429;-55
2023/06/23 14:27:36;;;;;;;18.73;16.75;;;;;;;27.71;53.19;100048.55;1830093;78;25354;-55
2023/06/23 14:30:05;;;;;;;19.40;16.45;;;;;;;27.55;53.90;100047.94;1829880;77;28543;-51
2023/06/23 14:32:31;;;;;;;20.55;15.90;;;;;;;27.43;54.45;100052.16;1829944;77;25390;-52
2023/06/23 14:34:58;;;;;;;18.50;16.48;;;;;;;27.37;55.25;100046.93;1829869;77;25511;-55
2023/06/23 14:37:26;;;;;;;17.17;15.38;;;;;;;27.31;55.02;100043.89;1829849;78;25391;-54
2023/06/23 14:39:52;;;;;;;19.57;16.00;;;;;;;27.07;55.34;100052.88;1830196;78;25442;-56
2023/06/23 14:42:19;;;;;;;22.35;18.40;;;;;;;27.07;55.34;100052.88;1813435;78;27466;-53
2023/06/23 14:44:48;;;;;;;22.25;17.73;;;;;;;26.90;55.69;100052.05;1813573;78;25559;-52
2023/06/23 14:47:14;;;;;;;18.85;16.80;;;;;;;26.72;56.22;100051.61;1813755;78;25546;-50
2023/06/23 14:49:40;;;;;;;25.97;21.82;;;;;;;26.53;56.57;100044.78;1829842;77;25547;-54
2023/06/23 14:52:06;;;;;;;19.40;17.40;;;;;;;26.38;56.99;100050.60;1829842;78;25411;-52
2023/06/23 14:54:33;;;;;;;21.60;18.85;;;;;;;26.36;57.53;100063.34;1829851;77;29601;-51
2023/06/23 14:56:59;;;;;;;18.87;16.73;;;;;;;26.28;57.89;100071.75;1829795;77;25525;-54
2023/06/23 14:59:25;;;;;;;18.75;16.45;;;;;;;26.18;57.92;100074.10;1829804;77;25572;-51
2023/06/23 15:01:51;;;;;;;18.42;16.55;;;;;;;26.17;58.29;100078.09;1829820;78;25375;-55
2023/06/23 15:04:19;;;;;;;19.25;15.90;;;;;;;26.09;58.72;100080.80;1829887;78;25377;-51
2023/06/23 15:06:45;;;;;;;21.57;15.68;;;;;;;25.98;58.79;100080.95;1829863;78;27517;-52
2023/06/23 15:09:11;;;;;;;17.82;14.53;;;;;;;25.96;59.09;100079.81;1829808;77;25517;-54
2023/06/23 15:11:38;;;;;;;17.45;14.43;;;;;;;25.84;58.54;100075.61;1829820;77;25452;-51
2023/06/23 15:14:04;;;;;;;18.55;14.65;;;;;;;25.76;58.96;100071.37;1829790;78;25429;-50
2023/06/23 15:16:30;;;;;;;16.20;13.98;;;;;;;25.57;58.88;100070.84;1829855;78;25411;-51
2023/06/23 15:18:57;;;;;;;17.07;14.38;;;;;;;25.48;58.96;100066.44;1829929;77;27531;-54
2023/06/23 15:21:24;;;;;;;18.67;13.83;;;;;;;25.48;59.84;100076.12;1829779;78;25550;-50
2023/06/23 15:23:50;;;;;;;18.30;14.40;;;;;;;25.40;59.46;100067.73;1829912;77;25600;-52
2023/06/23 15:26:18;;;;;;;14.40;12.23;;;;;;;25.36;59.80;100063.63;1813880;78;25378;-50
2023/06/23 15:28:44;;;;;;;18.25;13.08;;;;;;;25.29;60.07;100065.11;1829925;77;25427;-50
2023/06/23 15:31:10;;;;;;;15.00;12.18;;;;;;;25.25;60.05;100065.71;1829387;78;27511;-56
2023/06/23 15:33:37;;;;;;;18.32;12.80;;;;;;;25.23;60.22;100064.73;1828332;77;25679;-57
2023/06/23 15:36:06;;;;;;;14.98;12.50;;;;;;;25.25;60.45;100060.98;1828359;77;25633;-56
2023/06/23 15:38:33;;;;;;;15.72;11.68;;;;;;;25.28;60.64;100055.23;1829857;78;25439;-56
2023/06/23 15:41:04;;;;;;;18.30;12.43;;;;;;;25.28;60.52;100058.00;1829840;78;25605;-58
2023/06/23 15:43:29;;;;;;;16.57;12.58;;;;;;;25.29;60.34;100050.66;1829789;77;27430;-58
2023/06/23 15:45:57;;;;;;;17.92;11.60;;;;;;;25.30;60.37;100059.74;1829748;77;27329;-57
2023/06/23 15:48:25;;;;;;;16.02;12.73;;;;;;;25.26;60.28;100054.25;1829843;77;25439;-57
2023/06/23 15:50:53;;;;;;;13.60;12.20;;;;;;;25.26;60.49;100058.41;1829119;78;25615;-57
2023/06/23 15:53:22;;;;;;;16.60;11.97;;;;;;;25.22;60.70;100057.65;1829178;77;25602;-57
2023/06/23 15:55:50;;;;;;;14.18;12.65;;;;;;;25.21;60.36;100059.45;1829901;77;27518;-58
2023/06/23 15:58:17;;;;;;;16.05;12.33;;;;;;;25.22;60.53;100063.80;1829722;78;25397;-57
2023/06/23 16:00:43;;;;;;;16.77;12.18;;;;;;;25.15;60.37;100061.29;1829813;78;25348;-57
2023/06/23 16:03:10;;;;;;;17.35;12.53;;;;;;;25.15;60.48;100061.90;1829842;77;25765;-57
2023/06/23 16:05:37;;;;;;;18.25;13.25;;;;;;;25.11;60.47;100064.69;1829860;78;25514;-55
2023/06/23 16:08:08;;;;;;;16.27;12.93;;;;;;;25.10;60.68;100064.52;1829795;78;27445;-57
2023/06/23 16:10:35;;;;;;;14.03;12.53;;;;;;;25.09;60.52;100058.02;1828703;78;25608;-58
2023/06/23 16:13:03;;;;;;;18.50;12.58;;;;;;;25.06;60.93;100053.30;1803113;78;25597;-58
2023/06/23 16:15:30;;;;;;;18.52;13.08;;;;;;;25.04;61.37;100051.55;1823706;78;25545;-56
2023/06/23 16:17:58;;;;;;;18.95;13.25;;;;;;;25.02;61.30;100049.80;1823745;78;25604;-57
2023/06/23 16:20:24;;;;;;;19.48;15.65;;;;;;;25.01;61.51;100045.45;1823681;78;27534;-56
2023/06/23 16:22:51;;;;;;;19.17;15.93;;;;;;;24.99;61.45;100037.57;1823687;78;25577;-56
2023/06/23 16:25:18;;;;;;;21.65;16.42;;;;;;;24.98;61.81;100036.80;1823784;78;25548;-58
2023/06/23 16:27:45;;;;;;;17.60;15.78;;;;;;;24.94;61.83;100029.73;1803091;78;25192;-57
2023/06/23 16:30:12;;;;;;;18.62;14.47;;;;;;;24.93;61.65;100027.56;1823746;78;25572;-57
2023/06/23 16:32:40;;;;;;;18.15;14.55;;;;;;;24.95;61.74;100027.94;1802801;78;27914;-58
2023/06/23 16:35:09;;;;;;;18.45;14.80;;;;;;;24.95;61.87;100025.77;1823764;78;25558;-56
2023/06/23 16:37:35;;;;;;;18.00;14.13;;;;;;;24.92;61.98;100027.37;1823940;78;25634;-58
2023/06/23 16:40:02;;;;;;;14.83;12.68;;;;;;;24.94;62.14;100025.00;1823672;78;25517;-56
2023/06/23 16:42:30;;;;;;;17.63;13.40;;;;;;;24.95;62.15;100024.39;1824010;78;25443;-55
2023/06/23 16:44:56;;;;;;;14.70;13.03;;;;;;;24.98;62.09;100021.58;1823673;78;29674;-56
2023/06/23 16:47:22;;;;;;;17.30;12.85;;;;;;;25.01;62.10;100017.79;1823578;78;25372;-54
2023/06/23 16:49:50;;;;;;;16.70;13.18;;;;;;;25.05;62.26;100023.48;1823685;78;25481;-55
2023/06/23 16:52:17;;;;;;;17.37;13.85;;;;;;;25.06;62.10;100014.56;1824020;78;27404;-55
2023/06/23 16:54:43;;;;;;;16.57;11.83;;;;;;;25.08;62.18;100016.31;1803214;78;25381;-52
2023/06/23 16:57:14;;;;;;;17.00;10.48;;;;;;;25.09;61.83;100015.12;1823641;78;27441;-53
2023/06/23 16:59:42;;;;;;;11.85;9.98;;;;;;;25.10;61.64;100025.00;1823659;78;25667;-53
2023/06/23 17:02:08;;;;;;;15.38;10.82;;;;;;;25.11;61.56;100025.17;1822477;78;25408;-53
2023/06/23 17:04:37;;;;;;;17.50;10.20;;;;;;;25.11;61.56;100025.95;1823669;78;25368;-53
2023/06/23 17:07:07;;;;;;;18.02;10.72;;;;;;;25.11;61.42;100023.79;1823728;78;25372;-53
2023/06/23 17:09:33;;;;;;;15.03;10.48;;;;;;;25.13;61.40;100029.11;1823831;78;29562;-56
2023/06/23 17:11:59;;;;;;;15.30;10.88;;;;;;;25.13;61.23;100029.69;1802484;78;25483;-54
2023/06/23 17:14:28;;;;;;;16.32;10.03;;;;;;;25.12;61.17;100033.06;1823737;78;25516;-52
2023/06/23 17:16:57;;;;;;;14.30;10.43;;;;;;;25.14;61.28;100042.34;1823795;78;25504;-56
2023/06/23 17:19:23;;;;;;;19.65;10.38;;;;;;;25.14;61.45;100040.34;1823969;78;25556;-55
2023/06/23 17:21:51;;;;;;;16.30;9.95;;;;;;;25.13;61.22;100044.91;1823708;78;27616;-55
2023/06/23 17:24:19;;;;;;;14.68;10.48;;;;;;;25.11;61.15;100047.30;1823588;78;25494;-54
2023/06/23 17:26:45;;;;;;;12.60;10.28;;;;;;;25.09;61.07;100049.10;1823653;78;25582;-54
2023/06/23 17:29:11;;;;;;;19.32;10.75;;;;;;;25.09;61.16;100058.02;1823683;78;25536;-54
2023/06/23 17:31:40;;;;;;;15.60;10.70;;;;;;;25.07;61.20;100056.27;1823620;78;25411;-52
2023/06/23 17:34:09;;;;;;;20.57;12.05;;;;;;;25.05;61.00;100060.05;1824000;78;27567;-55
2023/06/23 17:36:37;;;;;;;;;;;;;;;25.03;61.30;100066.57;1826408;78;27407;-55
2023/06/23 17:39:04;;;;;;;16.80;10.93;;;;;;;25.00;61.13;100068.80;1824071;78;25488;-52
2023/06/23 17:41:30;;;;;;;16.12;11.38;;;;;;;24.93;61.33;100066.30;1823817;78;25612;-54
2023/06/23 17:43:56;;;;;;;13.80;10.25;;;;;;;24.87;61.35;100066.55;1823906;78;25556;-56
2023/06/23 17:46:24;;;;;;;16.20;10.80;;;;;;;24.84;61.30;100064.61;1823664;78;27501;-55
2023/06/23 17:48:52;;;;;;;14.03;10.13;;;;;;;24.79;61.53;100057.56;1823733;78;25786;-56
2023/06/23 17:51:18;;;;;;;18.20;11.20;;;;;;;24.74;61.54;100063.55;1823739;78;25451;-55
2023/06/23 17:53:45;;;;;;;13.93;10.88;;;;;;;24.71;61.43;100066.36;1802755;78;25558;-57
2023/06/23 17:56:13;;;;;;;16.52;11.30;;;;;;;24.67;61.70;100062.25;1823976;78;25612;-57
2023/06/23 17:58:41;;;;;;;17.77;11.97;;;;;;;24.63;61.79;100066.23;1823770;78;27596;-63
2023/06/23 18:01:08;;;;;;;17.83;12.23;;;;;;;24.58;61.95;100068.23;1823970;78;25542;-63
2023/06/23 18:03:36;;;;;;;16.87;11.30;;;;;;;24.54;61.86;100070.27;1823773;78;25688;-63
2023/06/23 18:06:04;;;;;;;18.33;12.27;;;;;;;24.50;62.00;100065.92;1824054;78;25525;-64
2023/06/23 18:08:30;;;;;;;15.40;11.37;;;;;;;24.46;62.32;100064.58;1824086;78;25453;-62
2023/06/23 18:10:57;;;;;;;17.80;11.90;;;;;;;24.42;62.28;100056.33;1823903;77;27550;-66
2023/06/23 18:13:25;;;;;;;20.05;12.10;;;;;;;24.43;62.39;100052.95;1829874;77;25447;-65
2023/06/23 18:15:53;;;;;;;14.98;12.53;;;;;;;24.41;62.58;100049.82;1829873;78;25564;-65
2023/06/23 18:18:22;;;;;;;17.35;12.60;;;;;;;24.40;62.83;100045.50;1829870;77;25475;-62
2023/06/23 18:20:49;;;;;;;16.02;11.10;;;;;;;24.35;62.65;100045.34;1829965;77;25580;-62
2023/06/23 18:23:15;;;;;;;13.03;9.70;;;;;;;24.32;62.56;100046.16;1829847;78;27480;-60
2023/06/23 18:25:43;;;;;;;11.97;9.05;;;;;;;24.27;62.08;100035.55;1829799;78;25400;-61
2023/06/23 18:28:10;;;;;;;10.00;7.92;;;;;;;24.18;61.31;100032.48;1829820;77;25349;-60
2023/06/23 18:30:36;;;;;;;8.20;7.10;;;;;;;24.10;60.62;100041.41;1829868;78;25433;-59
2023/06/23 18:33:02;;;;;;;11.85;7.40;;;;;;;24.02;60.08;100037.94;1813939;78;25627;-60
2023/06/23 18:35:29;;;;;;;12.23;6.90;;;;;;;23.94;59.44;100049.42;1829918;78;28191;-62
2023/06/23 18:37:55;;;;;;;9.50;6.33;;;;;;;23.86;59.01;100054.23;1829796;77;25626;-62
2023/06/23 18:40:22;;;;;;;8.28;5.80;;;;;;;23.79;58.30;100057.02;1829975;78;25356;-62
2023/06/23 18:42:48;;;;;;;9.88;6.90;;;;;;;23.68;58.05;100055.69;1829893;78;25554;-66
2023/06/23 18:45:17;;;;;;;10.95;5.20;;;;;;;23.58;57.17;100066.20;1829986;77;25365;-64
2023/06/23 18:47:49;;;;;;;6.87;4.90;;;;;;;23.47;56.87;100085.59;1814868;78;27373;-64
2023/06/23 18:50:15;;;;;;;7.33;4.90;;;;;;;23.36;56.74;100100.03;1812791;78;25698;-64
2023/06/23 18:52:41;;;;;;;7.58;5.28;;;;;;;23.27;56.89;100108.73;1828565;78;25607;-64
2023/06/23 18:55:09;;;;;;;8.78;5.50;;;;;;;23.20;56.81;100121.19;1828823;77;25651;-63
2023/06/23 18:57:35;;;;;;;8.10;4.70;;;;;;;23.13;56.48;100117.85;1829085;78;25630;-64
2023/06/23 19:00:05;;;;;;;5.12;4.35;;;;;;;23.03;56.06;100133.81;1828961;77;27434;-63
2023/06/23 19:02:32;;;;;;;5.78;4.50;;;;;;;22.93;55.83;100147.81;1828932;77;25588;-63
2023/06/23 19:04:58;;;;;;;6.20;4.25;;;;;;;22.84;55.77;100156.50;1829365;77;25695;-63
2023/06/23 19:07:24;;;;;;;6.60;3.87;;;;;;;22.74;55.63;100157.30;1829844;77;25630;-64
2023/06/23 19:09:50;;;;;;;8.28;4.75;;;;;;;22.66;55.65;100155.15;1829903;78;25557;-64
2023/06/23 19:12:16;;;;;;;8.50;6.65;;;;;;;22.59;55.75;100163.40;1827114;77;27536;-63
2023/06/23 19:14:42;;;;;;;8.53;4.47;;;;;;;22.51;55.73;100164.60;1823751;78;25396;-62
2023/06/23 19:17:09;;;;;;;6.35;4.83;;;;;;;22.42;55.78;100167.72;1823776;78;25517;-63
2023/06/23 19:19:39;;;;;;;8.38;7.60;;;;;;;22.35;55.75;100181.50;1823752;78;25508;-63
2023/06/23 19:22:07;;;;;;;22.02;20.32;;;;;;;22.26;55.86;100188.75;1823798;78;25510;-63
2023/06/23 19:24:37;;;;;;;59.70;55.95;;;;;;;22.20;56.05;100203.50;1823783;78;28088;-63
2023/06/23 19:27:08;;;;;;;72.50;68.30;;;;;;;22.15;56.22;100204.45;1823700;78;25599;-63
2023/06/23 19:29:36;;;;;;;29.50;27.37;;;;;;;22.11;56.41;100203.06;1823818;78;25408;-63
2023/06/23 19:32:05;;;;;;;8.15;4.22;;;;;;;22.05;56.22;100200.52;1823734;78;25778;-64
2023/06/23 19:34:34;;;;;;;9.65;4.55;;;;;;;22.01;56.25;100196.95;1823909;78;25486;-63
2023/06/23 19:37:00;;;;;;;8.48;4.15;;;;;;;21.95;56.25;100196.55;1823806;78;27472;-61
2023/06/23 19:39:28;;;;;;;13.32;12.20;;;;;;;21.88;55.72;100191.59;1823699;78;25757;-61
2023/06/23 19:41:54;;;;;;;39.18;36.75;;;;;;;21.78;55.60;100196.69;1823785;78;25599;-60
2023/06/23 19:44:21;;;;;;;69.27;65.10;;;;;;;21.70;55.69;100202.55;1823669;78;25532;-60
2023/06/23 19:46:48;;;;;;;71.67;67.37;;;;;;;21.63;55.77;100201.93;1823763;78;25392;-60
2023/06/23 19:49:14;;;;;;;79.95;74.50;;;;;;;21.54;55.58;100200.91;1823750;78;28040;-60
2023/06/23 19:51:40;;;;;;;20.85;18.92;;;;;;;21.48;55.66;100209.33;1823744;78;25586;-59
2023/06/23 19:54:07;;;;;;;13.85;12.53;;;;;;;21.40;55.52;100220.86;1823756;78;25533;-62
2023/06/23 19:56:33;;;;;;;72.22;67.67;;;;;;;21.32;55.30;100219.80;1823726;78;26192;-64
2023/06/23 19:59:00;;;;;;;93.15;86.40;;;;;;;21.22;55.37;100219.96;1823787;78;25609;-62
2023/06/23 20:01:26;;;;;;;84.42;79.03;;;;;;;21.14;55.27;100225.20;1823740;78;27527;-63
2023/06/23 20:03:52;;;;;;;97.47;90.07;;;;;;;21.07;55.24;100229.47;1823657;78;25602;-65
2023/06/23 20:06:20;;;;;;;75.17;70.62;;;;;;;21.01;55.41;100221.96;1823707;78;25605;-65
2023/06/23 20:08:49;;;;;;;72.95;68.65;;;;;;;20.96;55.56;100220.37;1823659;78;25529;-66
2023/06/23 20:11:16;;;;;;;73.17;68.92;;;;;;;20.90;55.76;100210.30;1803299;78;25647;-66
2023/06/23 20:13:43;;;;;;;74.55;69.97;;;;;;;20.86;55.73;100211.46;1823664;78;27457;-67
2023/06/23 20:16:09;;;;;;;73.02;68.83;;;;;;;20.82;56.10;100210.63;1823760;78;25600;-63
2023/06/23 20:18:35;;;;;;;72.95;68.55;;;;;;;20.79;56.27;100216.31;1823730;78;25429;-64
2023/06/23 20:21:03;;;;;;;73.37;68.72;;;;;;;20.73;56.40;100225.29;1823736;78;25534;-64
2023/06/23 20:23:31;;;;;;;76.05;71.30;;;;;;;20.68;56.42;100231.91;1823810;78;25543;-63
2023/06/23 20:26:01;;;;;;;74.80;70.15;;;;;;;20.63;56.51;100229.52;1823760;78;27484;-63
2023/06/23 20:28:28;;;;;;;73.22;68.87;;;;;;;20.56;56.72;100228.83;1823766;78;25561;-61
2023/06/23 20:30:55;;;;;;;73.67;69.30;;;;;;;20.50;56.99;100228.40;1823799;78;25475;-63
2023/06/23 20:33:23;;;;;;;75.12;70.75;;;;;;;20.43;57.12;100226.97;1823771;78;25886;-63
2023/06/23 20:35:52;;;;;;;72.20;67.80;;;;;;;20.35;57.30;100225.30;1824055;78;25375;-63
2023/06/23 20:38:18;;;;;;;74.05;69.55;;;;;;;20.29;57.38;100221.31;1823700;78;27500;-62
2023/06/23 20:40:45;;;;;;;75.35;70.83;;;;;;;20.23;57.69;100224.20;1823304;78;25364;-63
2023/06/23 20:43:13;;;;;;;99.00;91.40;;;;;;;20.17;57.86;100228.44;1822983;78;26116;-63
2023/06/23 20:45:39;;;;;;;77.37;72.40;;;;;;;20.10;58.10;100229.94;1803251;78;26356;-62
2023/06/23 20:48:07;;;;;;;73.47;68.97;;;;;;;20.06;58.51;100247.55;1823837;78;25395;-61
2023/06/23 20:50:36;;;;;;;74.05;69.50;;;;;;;20.03;58.83;100256.53;1823709;78;27542;-61
2023/06/23 20:53:02;;;;;;;72.97;68.62;;;;;;;20.01;59.02;100267.88;1823885;78;25576;-63
2023/06/23 20:55:29;;;;;;;91.90;85.07;;;;;;;19.99;59.10;100277.08;1823744;78;25530;-63
2023/06/23 20:57:57;;;;;;;87.90;81.53;;;;;;;19.97;59.36;100287.62;1802610;78;25448;-63
2023/06/23 21:00:23;;;;;;;85.92;80.35;;;;;;;19.96;59.65;100283.31;1803296;78;25472;-65
2023/06/23 21:02:52;;;;;;;74.77;70.12;;;;;;;19.98;59.72;100293.92;1802533;78;28187;-62
2023/06/23 21:05:21;;;;;;;73.67;69.20;;;;;;;19.98;59.66;100297.45;1823859;78;25442;-61
2023/06/23 21:07:50;;;;;;;74.65;70.08;;;;;;;20.00;59.71;100301.20;1823911;78;25172;-61
2023/06/23 21:10:18;;;;;;;74.05;69.62;;;;;;;20.03;59.78;100303.20;1823650;78;25659;-61
2023/06/23 21:12:44;;;;;;;73.72;69.17;;;;;;;20.02;59.71;100298.86;1823468;78;25801;-61
2023/06/23 21:15:10;;;;;;;73.80;69.40;;;;;;;20.02;59.62;100299.64;1823789;78;27455;-61
2023/06/23 21:17:38;;;;;;;73.50;69.20;;;;;;;20.01;59.64;100303.57;1803238;78;25372;-61
2023/06/23 21:20:09;;;;;;;73.40;69.00;;;;;;;20.01;59.67;100315.92;1823744;78;25483;-61
2023/06/23 21:22:36;;;;;;;76.35;71.47;;;;;;;20.02;59.70;100320.23;1823765;78;25616;-61
2023/06/23 21:25:06;;;;;;;73.85;69.35;;;;;;;20.02;59.58;100317.48;1823750;78;25355;-69
2023/06/23 21:27:32;;;;;;;73.28;69.05;;;;;;;20.02;59.50;100317.48;1823729;78;27449;-68
2023/06/23 21:30:02;;;;;;;73.45;68.95;;;;;;;20.02;59.66;100328.47;1823633;78;25510;-70
2023/06/23 21:32:28;;;;;;;73.57;69.22;;;;;;;20.03;59.74;100323.20;1823801;78;25440;-69
2023/06/23 21:34:54;;;;;;;73.28;68.47;;;;;;;20.04;59.68;100323.98;1823869;78;25566;-68
2023/06/23 21:37:21;;;;;;;74.67;70.30;;;;;;;20.03;59.72;100324.57;1802815;78;25396;-67
2023/06/23 21:39:47;;;;;;;73.42;69.12;;;;;;;20.04;59.89;100337.70;1803332;78;27583;-65
2023/06/23 21:42:16;;;;;;;141.30;127.62;;;;;;;20.03;59.88;100341.05;1823718;78;27435;-61
2023/06/23 21:44:42;;;;;;;;;;;;;;;20.05;59.91;100340.09;1826502;78;25506;-61
2023/06/23 21:47:12;;;;;;;105.43;97.15;;;;;;;20.07;60.16;100339.72;1823839;78;25531;-62
2023/06/23 21:49:40;;;;;;;;;;;;;;;20.06;59.93;100336.78;1826547;78;25557;-62
2023/06/23 21:52:10;;;;;;;92.50;85.83;;;;;;;20.08;60.08;100338.56;1823845;78;28452;-62
2023/06/23 21:54:37;;;;;;;78.45;73.50;;;;;;;20.06;59.93;100338.15;1823889;78;25375;-59
2023/06/23 21:57:06;;;;;;;72.50;68.20;;;;;;;20.05;60.02;100339.30;1823821;78;25545;-60
2023/06/23 21:59:32;;;;;;;75.22;70.52;;;;;;;20.05;60.08;100343.42;1823798;78;26244;-58
2023/06/23 22:01:59;;;;;;;74.03;69.42;;;;;;;20.07;60.10;100340.50;1823787;78;25442;-60
2023/06/23 22:04:25;;;;;;;74.72;70.12;;;;;;;20.08;60.18;100339.34;1823797;78;27569;-60
2023/06/23 22:07:16;;;;;;;73.52;69.17;;;;;;;20.08;60.10;100340.72;1823720;78;25791;-59
2023/06/23 22:09:44;;;;;;;74.50;70.00;;;;;;;20.10;60.10;100339.76;1687290;82;26060;-59
2023/06/23 22:12:37;;;;;;;75.60;71.05;;;;;;;20.10;60.07;100328.78;1687609;85;25532;-58
2023/06/23 22:15:08;;;;;;;73.55;69.05;;;;;;;20.11;60.03;100330.37;1634967;87;25701;-60
